sensor_id;sensor_type;location;lat;lon;timestamp;temperature;humidity
47168;DHT22;32931;47.778;17.806;2023-07-29T00:00:57;22.20;99.00
47168;DHT22;32931;47.778;17.806;2023-07-29T00:03:24;22.20;99.20
47168;DHT22;32931;47.778;17.806;2023-07-29T00:05:50;22.20;99.40
47168;DHT22;32931;47.778;17.806;2023-07-29T00:08:16;22.20;99.50
47168;DHT22;32931;47.778;17.806;2023-07-29T00:10:42;22.20;99.60
47168;DHT22;32931;47.778;17.806;2023-07-29T00:13:08;22.20;99.80
47168;DHT22;32931;47.778;17.806;2023-07-29T00:15:34;22.10;99.80
47168;DHT22;32931;47.778;17.806;2023-07-29T00:18:01;22.10;99.90
47168;DHT22;32931;47.778;17.806;2023-07-29T00:20:27;22.10;99.90
47168;DHT22;32931;47.778;17.806;2023-07-29T00:22:53;22.00;99.90
47168;DHT22;32931;47.778;17.806;2023-07-29T00:25:21;22.00;99.90
47168;DHT22;32931;47.778;17.806;2023-07-29T00:27:47;22.10;99.90
47168;DHT22;32931;47.778;17.806;2023-07-29T00:30:13;22.00;99.90
47168;DHT22;32931;47.778;17.806;2023-07-29T00:32:39;22.00;99.90
47168;DHT22;32931;47.778;17.806;2023-07-29T00:35:06;22.00;99.90
47168;DHT22;32931;47.778;17.806;2023-07-29T00:37:32;22.00;99.90
47168;DHT22;32931;47.778;17.806;2023-07-29T00:39:58;22.00;99.90
47168;DHT22;32931;47.778;17.806;2023-07-29T00:42:25;22.00;99.90
47168;DHT22;32931;47.778;17.806;2023-07-29T00:44:51;22.00;99.90
47168;DHT22;32931;47.778;17.806;2023-07-29T00:47:18;21.90;99.90
47168;DHT22;32931;47.778;17.806;2023-07-29T00:49:45;21.90;99.90
47168;DHT22;32931;47.778;17.806;2023-07-29T00:52:12;21.90;99.90
47168;DHT22;32931;47.778;17.806;2023-07-29T00:54:39;21.90;99.90
47168;DHT22;32931;47.778;17.806;2023-07-29T00:57:08;21.80;99.90
47168;DHT22;32931;47.778;17.806;2023-07-29T00:59:35;21.80;99.90
47168;DHT22;32931;47.778;17.806;2023-07-29T01:02:02;21.80;99.90
47168;DHT22;32931;47.778;17.806;2023-07-29T01:04:28;21.80;99.90
47168;DHT22;32931;47.778;17.806;2023-07-29T01:09:33;21.80;99.90
47168;DHT22;32931;47.778;17.806;2023-07-29T01:12:16;21.80;99.90
47168;DHT22;32931;47.778;17.806;2023-07-29T01:17:15;21.80;99.90
47168;DHT22;32931;47.778;17.806;2023-07-29T01:22:27;21.90;99.90
47168;DHT22;32931;47.778;17.806;2023-07-29T01:24:53;21.90;99.90
47168;DHT22;32931;47.778;17.806;2023-07-29T01:27:19;21.80;99.90
47168;DHT22;32931;47.778;17.806;2023-07-29T01:29:45;21.80;99.90
47168;DHT22;32931;47.778;17.806;2023-07-29T01:32:17;21.80;99.90
47168;DHT22;32931;47.778;17.806;2023-07-29T01:34:56;21.90;99.90
47168;DHT22;32931;47.778;17.806;2023-07-29T01:37:26;21.90;99.90
47168;DHT22;32931;47.778;17.806;2023-07-29T01:39:57;21.90;99.90
47168;DHT22;32931;47.778;17.806;2023-07-29T01:42:25;21.80;99.90
47168;DHT22;32931;47.778;17.806;2023-07-29T01:44:52;21.80;99.90
47168;DHT22;32931;47.778;17.806;2023-07-29T01:47:18;21.80;99.90
47168;DHT22;32931;47.778;17.806;2023-07-29T01:49:46;21.80;99.90
47168;DHT22;32931;47.778;17.806;2023-07-29T01:52:12;21.80;99.90
47168;DHT22;32931;47.778;17.806;2023-07-29T01:54:38;21.80;99.90
47168;DHT22;32931;47.778;17.806;2023-07-29T01:57:04;21.70;99.90
47168;DHT22;32931;47.778;17.806;2023-07-29T01:59:30;21.70;99.90
47168;DHT22;32931;47.778;17.806;2023-07-29T02:01:57;21.70;99.90
47168;DHT22;32931;47.778;17.806;2023-07-29T02:04:23;21.70;99.90
47168;DHT22;32931;47.778;17.806;2023-07-29T02:06:49;21.70;99.90
47168;DHT22;32931;47.778;17.806;2023-07-29T02:09:15;21.70;99.90
47168;DHT22;32931;47.778;17.806;2023-07-29T02:11:41;21.70;99.90
47168;DHT22;32931;47.778;17.806;2023-07-29T02:14:07;21.70;99.90
47168;DHT22;32931;47.778;17.806;2023-07-29T02:16:33;21.70;99.90
47168;DHT22;32931;47.778;17.806;2023-07-29T02:19:00;21.70;99.90
47168;DHT22;32931;47.778;17.806;2023-07-29T02:21:26;21.70;99.90
47168;DHT22;32931;47.778;17.806;2023-07-29T02:23:52;21.70;99.90
47168;DHT22;32931;47.778;17.806;2023-07-29T02:26:18;21.70;99.90
47168;DHT22;32931;47.778;17.806;2023-07-29T02:28:44;21.70;99.90
47168;DHT22;32931;47.778;17.806;2023-07-29T02:31:22;21.60;99.90
47168;DHT22;32931;47.778;17.806;2023-07-29T02:33:49;21.60;99.90
47168;DHT22;32931;47.778;17.806;2023-07-29T02:36:16;21.50;99.90
47168;DHT22;32931;47.778;17.806;2023-07-29T02:38:42;21.60;99.90
47168;DHT22;32931;47.778;17.806;2023-07-29T02:41:09;21.60;99.90
47168;DHT22;32931;47.778;17.806;2023-07-29T02:43:38;21.60;99.90
47168;DHT22;32931;47.778;17.806;2023-07-29T02:46:04;21.60;99.90
47168;DHT22;32931;47.778;17.806;2023-07-29T02:48:30;21.60;99.90
47168;DHT22;32931;47.778;17.806;2023-07-29T02:50:56;21.40;99.90
47168;DHT22;32931;47.778;17.806;2023-07-29T02:53:23;21.50;99.90
47168;DHT22;32931;47.778;17.806;2023-07-29T02:55:49;21.50;99.90
47168;DHT22;32931;47.778;17.806;2023-07-29T02:58:15;21.50;99.90
47168;DHT22;32931;47.778;17.806;2023-07-29T03:00:41;21.40;99.90
47168;DHT22;32931;47.778;17.806;2023-07-29T03:03:08;21.40;99.90
47168;DHT22;32931;47.778;17.806;2023-07-29T03:05:34;21.40;99.90
47168;DHT22;32931;47.778;17.806;2023-07-29T03:08:01;21.50;99.90
47168;DHT22;32931;47.778;17.806;2023-07-29T03:10:27;21.50;99.90
47168;DHT22;32931;47.778;17.806;2023-07-29T03:12:56;21.50;99.90
47168;DHT22;32931;47.778;17.806;2023-07-29T03:15:25;21.40;99.90
47168;DHT22;32931;47.778;17.806;2023-07-29T03:17:52;21.40;99.90
47168;DHT22;32931;47.778;17.806;2023-07-29T03:20:19;21.40;99.90
47168;DHT22;32931;47.778;17.806;2023-07-29T03:22:46;21.30;99.90
47168;DHT22;32931;47.778;17.806;2023-07-29T03:25:13;21.30;99.90
47168;DHT22;32931;47.778;17.806;2023-07-29T03:27:39;21.30;99.90
47168;DHT22;32931;47.778;17.806;2023-07-29T03:30:08;21.30;99.90
47168;DHT22;32931;47.778;17.806;2023-07-29T03:32:35;21.40;99.90
47168;DHT22;32931;47.778;17.806;2023-07-29T03:35:01;21.40;99.90
47168;DHT22;32931;47.778;17.806;2023-07-29T03:37:27;21.40;99.90
47168;DHT22;32931;47.778;17.806;2023-07-29T03:39:53;21.50;99.90
47168;DHT22;32931;47.778;17.806;2023-07-29T03:42:19;21.50;99.90
47168;DHT22;32931;47.778;17.806;2023-07-29T03:44:45;21.50;99.90
47168;DHT22;32931;47.778;17.806;2023-07-29T03:47:11;21.50;99.90
47168;DHT22;32931;47.778;17.806;2023-07-29T03:49:37;21.50;99.90
47168;DHT22;32931;47.778;17.806;2023-07-29T03:52:04;21.50;99.90
47168;DHT22;32931;47.778;17.806;2023-07-29T03:54:30;21.50;99.90
47168;DHT22;32931;47.778;17.806;2023-07-29T03:56:56;21.50;99.90
47168;DHT22;32931;47.778;17.806;2023-07-29T03:59:22;21.50;99.90
47168;DHT22;32931;47.778;17.806;2023-07-29T04:01:48;21.50;99.90
47168;DHT22;32931;47.778;17.806;2023-07-29T04:04:15;21.50;99.90
47168;DHT22;32931;47.778;17.806;2023-07-29T04:06:41;21.50;99.90
47168;DHT22;32931;47.778;17.806;2023-07-29T04:09:07;21.50;99.90
47168;DHT22;32931;47.778;17.806;2023-07-29T04:11:33;21.50;99.90
47168;DHT22;32931;47.778;17.806;2023-07-29T04:14:00;21.50;99.90
47168;DHT22;32931;47.778;17.806;2023-07-29T04:16:26;21.50;99.90
47168;DHT22;32931;47.778;17.806;2023-07-29T04:18:52;21.50;99.90
47168;DHT22;32931;47.778;17.806;2023-07-29T04:21:18;21.50;99.90
47168;DHT22;32931;47.778;17.806;2023-07-29T04:23:44;21.60;99.90
47168;DHT22;32931;47.778;17.806;2023-07-29T04:26:11;21.60;99.90
47168;DHT22;32931;47.778;17.806;2023-07-29T04:28:37;21.60;99.90
47168;DHT22;32931;47.778;17.806;2023-07-29T04:31:03;21.60;99.90
47168;DHT22;32931;47.778;17.806;2023-07-29T04:33:29;21.60;99.90
47168;DHT22;32931;47.778;17.806;2023-07-29T04:35:57;21.60;99.90
47168;DHT22;32931;47.778;17.806;2023-07-29T04:38:30;21.70;99.90
47168;DHT22;32931;47.778;17.806;2023-07-29T04:40:56;21.70;99.90
47168;DHT22;32931;47.778;17.806;2023-07-29T04:43:22;21.70;99.90
47168;DHT22;32931;47.778;17.806;2023-07-29T04:45:48;21.80;99.90
47168;DHT22;32931;47.778;17.806;2023-07-29T04:48:14;21.80;99.90
47168;DHT22;32931;47.778;17.806;2023-07-29T04:50:40;21.80;99.90
47168;DHT22;32931;47.778;17.806;2023-07-29T04:53:07;21.80;99.90
47168;DHT22;32931;47.778;17.806;2023-07-29T04:55:33;21.80;99.90
47168;DHT22;32931;47.778;17.806;2023-07-29T04:57:59;21.90;99.90
47168;DHT22;32931;47.778;17.806;2023-07-29T05:00:26;21.90;99.90
47168;DHT22;32931;47.778;17.806;2023-07-29T05:02:52;22.00;99.90
47168;DHT22;32931;47.778;17.806;2023-07-29T05:05:18;22.00;99.90
47168;DHT22;32931;47.778;17.806;2023-07-29T05:07:44;22.00;99.90
47168;DHT22;32931;47.778;17.806;2023-07-29T05:10:10;22.10;99.90
47168;DHT22;32931;47.778;17.806;2023-07-29T05:12:37;22.10;99.90
47168;DHT22;32931;47.778;17.806;2023-07-29T05:15:03;22.20;99.90
47168;DHT22;32931;47.778;17.806;2023-07-29T05:17:30;22.30;99.90
47168;DHT22;32931;47.778;17.806;2023-07-29T05:19:56;22.30;99.90
47168;DHT22;32931;47.778;17.806;2023-07-29T05:22:22;22.40;99.90
47168;DHT22;32931;47.778;17.806;2023-07-29T05:24:48;22.50;99.90
47168;DHT22;32931;47.778;17.806;2023-07-29T05:27:15;22.50;99.90
47168;DHT22;32931;47.778;17.806;2023-07-29T05:29:41;22.50;99.90
47168;DHT22;32931;47.778;17.806;2023-07-29T05:32:07;22.50;99.90
47168;DHT22;32931;47.778;17.806;2023-07-29T05:34:33;22.60;99.90
47168;DHT22;32931;47.778;17.806;2023-07-29T05:36:59;22.70;99.90
47168;DHT22;32931;47.778;17.806;2023-07-29T05:39:26;22.70;99.90
47168;DHT22;32931;47.778;17.806;2023-07-29T05:41:52;22.70;99.90
47168;DHT22;32931;47.778;17.806;2023-07-29T05:44:18;22.70;99.90
47168;DHT22;32931;47.778;17.806;2023-07-29T05:46:44;22.80;99.90
47168;DHT22;32931;47.778;17.806;2023-07-29T05:49:10;22.80;99.90
47168;DHT22;32931;47.778;17.806;2023-07-29T05:51:36;22.80;99.90
47168;DHT22;32931;47.778;17.806;2023-07-29T05:54:02;22.80;99.90
47168;DHT22;32931;47.778;17.806;2023-07-29T05:56:28;23.00;99.90
47168;DHT22;32931;47.778;17.806;2023-07-29T05:58:55;23.10;99.90
47168;DHT22;32931;47.778;17.806;2023-07-29T06:01:21;23.10;99.90
47168;DHT22;32931;47.778;17.806;2023-07-29T06:03:47;23.10;99.90
47168;DHT22;32931;47.778;17.806;2023-07-29T06:06:14;23.20;99.90
47168;DHT22;32931;47.778;17.806;2023-07-29T06:08:40;23.30;99.90
47168;DHT22;32931;47.778;17.806;2023-07-29T06:11:06;23.30;99.90
47168;DHT22;32931;47.778;17.806;2023-07-29T06:13:32;23.30;99.90
47168;DHT22;32931;47.778;17.806;2023-07-29T06:15:59;23.50;99.90
47168;DHT22;32931;47.778;17.806;2023-07-29T06:18:25;23.60;99.90
47168;DHT22;32931;47.778;17.806;2023-07-29T06:20:51;23.70;99.90
47168;DHT22;32931;47.778;17.806;2023-07-29T06:23:17;23.80;99.90
47168;DHT22;32931;47.778;17.806;2023-07-29T06:25:43;23.90;99.90
47168;DHT22;32931;47.778;17.806;2023-07-29T06:28:10;23.90;99.90
47168;DHT22;32931;47.778;17.806;2023-07-29T06:30:36;24.00;99.90
47168;DHT22;32931;47.778;17.806;2023-07-29T06:33:02;24.00;99.90
47168;DHT22;32931;47.778;17.806;2023-07-29T06:35:29;24.10;99.90
47168;DHT22;32931;47.778;17.806;2023-07-29T06:37:55;24.10;99.90
47168;DHT22;32931;47.778;17.806;2023-07-29T06:40:21;24.10;99.90
47168;DHT22;32931;47.778;17.806;2023-07-29T06:42:47;24.20;99.90
47168;DHT22;32931;47.778;17.806;2023-07-29T06:45:13;24.10;99.90
47168;DHT22;32931;47.778;17.806;2023-07-29T06:47:41;24.10;99.90
47168;DHT22;32931;47.778;17.806;2023-07-29T06:50:07;24.10;99.90
47168;DHT22;32931;47.778;17.806;2023-07-29T06:52:34;24.10;99.90
47168;DHT22;32931;47.778;17.806;2023-07-29T06:55:00;24.20;99.90
47168;DHT22;32931;47.778;17.806;2023-07-29T06:57:26;24.20;99.90
47168;DHT22;32931;47.778;17.806;2023-07-29T06:59:52;24.30;99.90
47168;DHT22;32931;47.778;17.806;2023-07-29T07:02:18;24.30;99.90
47168;DHT22;32931;47.778;17.806;2023-07-29T07:04:44;24.30;99.90
47168;DHT22;32931;47.778;17.806;2023-07-29T07:07:11;24.40;99.90
47168;DHT22;32931;47.778;17.806;2023-07-29T07:09:37;24.50;99.90
47168;DHT22;32931;47.778;17.806;2023-07-29T07:12:03;24.60;99.90
47168;DHT22;32931;47.778;17.806;2023-07-29T07:14:29;24.60;99.90
47168;DHT22;32931;47.778;17.806;2023-07-29T07:16:55;24.70;99.90
47168;DHT22;32931;47.778;17.806;2023-07-29T07:19:22;24.70;99.80
47168;DHT22;32931;47.778;17.806;2023-07-29T07:21:48;24.70;99.90
47168;DHT22;32931;47.778;17.806;2023-07-29T07:24:14;24.80;99.90
47168;DHT22;32931;47.778;17.806;2023-07-29T07:26:40;24.90;99.60
47168;DHT22;32931;47.778;17.806;2023-07-29T07:29:06;24.90;99.50
47168;DHT22;32931;47.778;17.806;2023-07-29T07:31:35;25.00;99.40
47168;DHT22;32931;47.778;17.806;2023-07-29T07:34:01;25.10;99.30
47168;DHT22;32931;47.778;17.806;2023-07-29T07:36:31;25.10;99.20
47168;DHT22;32931;47.778;17.806;2023-07-29T07:38:57;25.10;99.10
47168;DHT22;32931;47.778;17.806;2023-07-29T07:41:23;25.10;98.60
47168;DHT22;32931;47.778;17.806;2023-07-29T07:43:49;25.20;98.50
47168;DHT22;32931;47.778;17.806;2023-07-29T07:46:16;25.20;98.40
47168;DHT22;32931;47.778;17.806;2023-07-29T07:48:42;25.20;98.10
47168;DHT22;32931;47.778;17.806;2023-07-29T07:51:14;25.30;98.10
47168;DHT22;32931;47.778;17.806;2023-07-29T07:53:40;25.30;97.70
47168;DHT22;32931;47.778;17.806;2023-07-29T07:56:06;25.40;98.20
47168;DHT22;32931;47.778;17.806;2023-07-29T07:58:33;25.50;98.40
47168;DHT22;32931;47.778;17.806;2023-07-29T08:01:06;25.60;98.30
47168;DHT22;32931;47.778;17.806;2023-07-29T08:03:33;25.70;97.30
47168;DHT22;32931;47.778;17.806;2023-07-29T08:06:00;25.80;97.40
47168;DHT22;32931;47.778;17.806;2023-07-29T08:08:27;25.80;97.10
47168;DHT22;32931;47.778;17.806;2023-07-29T08:10:54;25.80;96.30
47168;DHT22;32931;47.778;17.806;2023-07-29T08:13:21;25.80;95.90
47168;DHT22;32931;47.778;17.806;2023-07-29T08:15:49;25.90;96.00
47168;DHT22;32931;47.778;17.806;2023-07-29T08:18:15;25.90;95.40
47168;DHT22;32931;47.778;17.806;2023-07-29T08:20:54;25.90;95.20
47168;DHT22;32931;47.778;17.806;2023-07-29T08:23:30;25.90;94.70
47168;DHT22;32931;47.778;17.806;2023-07-29T08:26:01;25.90;95.10
47168;DHT22;32931;47.778;17.806;2023-07-29T08:28:30;26.00;94.00
47168;DHT22;32931;47.778;17.806;2023-07-29T08:30:56;26.10;94.30
47168;DHT22;32931;47.778;17.806;2023-07-29T08:33:23;26.10;94.00
47168;DHT22;32931;47.778;17.806;2023-07-29T08:35:49;26.30;93.80
47168;DHT22;32931;47.778;17.806;2023-07-29T08:38:15;26.40;93.50
47168;DHT22;32931;47.778;17.806;2023-07-29T08:41:04;26.40;93.30
47168;DHT22;32931;47.778;17.806;2023-07-29T08:43:32;26.50;91.20
47168;DHT22;32931;47.778;17.806;2023-07-29T08:45:59;26.50;92.30
47168;DHT22;32931;47.778;17.806;2023-07-29T08:48:32;26.50;92.10
47168;DHT22;32931;47.778;17.806;2023-07-29T08:51:03;26.60;91.50
47168;DHT22;32931;47.778;17.806;2023-07-29T08:53:31;26.60;92.20
47168;DHT22;32931;47.778;17.806;2023-07-29T08:55:57;26.70;92.10
47168;DHT22;32931;47.778;17.806;2023-07-29T08:58:24;26.70;91.80
47168;DHT22;32931;47.778;17.806;2023-07-29T09:00:51;26.80;91.90
47168;DHT22;32931;47.778;17.806;2023-07-29T09:03:17;26.80;91.30
47168;DHT22;32931;47.778;17.806;2023-07-29T09:05:43;26.90;91.00
47168;DHT22;32931;47.778;17.806;2023-07-29T09:08:10;27.00;90.70
47168;DHT22;32931;47.778;17.806;2023-07-29T09:10:37;27.10;90.60
47168;DHT22;32931;47.778;17.806;2023-07-29T09:13:04;27.10;90.00
47168;DHT22;32931;47.778;17.806;2023-07-29T09:15:32;27.10;90.10
47168;DHT22;32931;47.778;17.806;2023-07-29T09:17:59;27.10;90.20
47168;DHT22;32931;47.778;17.806;2023-07-29T09:20:26;27.10;90.50
47168;DHT22;32931;47.778;17.806;2023-07-29T09:22:58;27.20;90.70
47168;DHT22;32931;47.778;17.806;2023-07-29T09:25:27;27.20;89.80
47168;DHT22;32931;47.778;17.806;2023-07-29T09:27:59;27.30;90.50
47168;DHT22;32931;47.778;17.806;2023-07-29T09:30:26;27.30;90.00
47168;DHT22;32931;47.778;17.806;2023-07-29T09:32:56;27.40;90.00
47168;DHT22;32931;47.778;17.806;2023-07-29T09:35:23;27.30;88.90
47168;DHT22;32931;47.778;17.806;2023-07-29T09:37:51;27.40;89.40
47168;DHT22;32931;47.778;17.806;2023-07-29T09:40:18;27.40;88.60
47168;DHT22;32931;47.778;17.806;2023-07-29T09:42:54;27.50;88.20
47168;DHT22;32931;47.778;17.806;2023-07-29T09:45:25;27.60;88.00
47168;DHT22;32931;47.778;17.806;2023-07-29T09:47:56;27.60;87.90
47168;DHT22;32931;47.778;17.806;2023-07-29T09:50:26;27.70;88.60
47168;DHT22;32931;47.778;17.806;2023-07-29T09:52:53;27.70;87.10
47168;DHT22;32931;47.778;17.806;2023-07-29T09:55:24;27.70;87.20
47168;DHT22;32931;47.778;17.806;2023-07-29T09:57:59;27.70;87.30
47168;DHT22;32931;47.778;17.806;2023-07-29T10:00:31;27.80;87.60
47168;DHT22;32931;47.778;17.806;2023-07-29T10:02:58;27.80;87.20
47168;DHT22;32931;47.778;17.806;2023-07-29T10:05:28;27.80;87.40
47168;DHT22;32931;47.778;17.806;2023-07-29T10:07:55;27.80;83.20
47168;DHT22;32931;47.778;17.806;2023-07-29T10:10:21;27.70;85.50
47168;DHT22;32931;47.778;17.806;2023-07-29T10:12:48;27.80;85.60
47168;DHT22;32931;47.778;17.806;2023-07-29T10:15:15;27.80;84.90
47168;DHT22;32931;47.778;17.806;2023-07-29T10:17:41;27.80;84.40
47168;DHT22;32931;47.778;17.806;2023-07-29T10:20:09;27.80;85.20
47168;DHT22;32931;47.778;17.806;2023-07-29T10:22:40;27.90;84.50
47168;DHT22;32931;47.778;17.806;2023-07-29T10:25:30;27.80;84.80
47168;DHT22;32931;47.778;17.806;2023-07-29T10:28:05;27.90;85.80
47168;DHT22;32931;47.778;17.806;2023-07-29T10:30:32;28.00;84.90
47168;DHT22;32931;47.778;17.806;2023-07-29T10:33:02;28.00;84.50
47168;DHT22;32931;47.778;17.806;2023-07-29T10:35:28;28.10;85.10
47168;DHT22;32931;47.778;17.806;2023-07-29T10:37:55;28.20;85.00
47168;DHT22;32931;47.778;17.806;2023-07-29T10:40:21;28.30;84.70
47168;DHT22;32931;47.778;17.806;2023-07-29T10:43:10;28.30;85.00
47168;DHT22;32931;47.778;17.806;2023-07-29T10:45:40;28.30;84.70
47168;DHT22;32931;47.778;17.806;2023-07-29T10:51:27;28.30;84.70
47168;DHT22;32931;47.778;17.806;2023-07-29T10:54:02;28.40;83.60
47168;DHT22;32931;47.778;17.806;2023-07-29T10:56:30;28.50;86.30
47168;DHT22;32931;47.778;17.806;2023-07-29T10:58:58;28.60;86.70
47168;DHT22;32931;47.778;17.806;2023-07-29T11:01:32;28.70;87.40
47168;DHT22;32931;47.778;17.806;2023-07-29T11:12:43;29.20;85.50
47168;DHT22;32931;47.778;17.806;2023-07-29T11:15:15;29.20;86.10
47168;DHT22;32931;47.778;17.806;2023-07-29T11:17:47;29.30;85.90
47168;DHT22;32931;47.778;17.806;2023-07-29T11:20:14;29.30;84.40
47168;DHT22;32931;47.778;17.806;2023-07-29T11:22:41;29.20;82.40
47168;DHT22;32931;47.778;17.806;2023-07-29T11:25:09;29.20;84.90
47168;DHT22;32931;47.778;17.806;2023-07-29T11:27:36;29.40;84.70
47168;DHT22;32931;47.778;17.806;2023-07-29T11:30:07;29.40;85.00
47168;DHT22;32931;47.778;17.806;2023-07-29T11:32:38;29.40;84.10
47168;DHT22;32931;47.778;17.806;2023-07-29T11:35:09;29.40;83.30
47168;DHT22;32931;47.778;17.806;2023-07-29T11:37:37;29.40;83.70
47168;DHT22;32931;47.778;17.806;2023-07-29T11:40:04;29.40;84.60
47168;DHT22;32931;47.778;17.806;2023-07-29T11:42:35;29.40;84.30
47168;DHT22;32931;47.778;17.806;2023-07-29T11:45:02;29.70;84.50
47168;DHT22;32931;47.778;17.806;2023-07-29T11:47:29;29.80;84.70
47168;DHT22;32931;47.778;17.806;2023-07-29T11:49:59;30.00;83.80
47168;DHT22;32931;47.778;17.806;2023-07-29T11:52:28;30.10;79.60
47168;DHT22;32931;47.778;17.806;2023-07-29T11:54:55;30.20;80.80
47168;DHT22;32931;47.778;17.806;2023-07-29T11:57:21;30.40;80.40
47168;DHT22;32931;47.778;17.806;2023-07-29T11:59:47;30.50;79.60
47168;DHT22;32931;47.778;17.806;2023-07-29T12:02:16;30.70;80.70
47168;DHT22;32931;47.778;17.806;2023-07-29T12:04:44;31.00;82.40
47168;DHT22;32931;47.778;17.806;2023-07-29T12:07:13;31.20;82.80
47168;DHT22;32931;47.778;17.806;2023-07-29T12:09:40;31.40;82.80
47168;DHT22;32931;47.778;17.806;2023-07-29T12:12:07;31.60;84.30
47168;DHT22;32931;47.778;17.806;2023-07-29T12:14:34;31.80;82.80
47168;DHT22;32931;47.778;17.806;2023-07-29T12:17:05;32.00;81.40
47168;DHT22;32931;47.778;17.806;2023-07-29T12:19:35;32.30;80.70
47168;DHT22;32931;47.778;17.806;2023-07-29T12:22:06;32.40;80.40
47168;DHT22;32931;47.778;17.806;2023-07-29T12:24:35;32.60;80.10
47168;DHT22;32931;47.778;17.806;2023-07-29T12:27:01;32.70;78.40
47168;DHT22;32931;47.778;17.806;2023-07-29T12:29:28;32.80;79.40
47168;DHT22;32931;47.778;17.806;2023-07-29T12:31:59;33.10;78.70
47168;DHT22;32931;47.778;17.806;2023-07-29T12:34:26;33.20;74.50
47168;DHT22;32931;47.778;17.806;2023-07-29T12:36:54;33.30;75.50
47168;DHT22;32931;47.778;17.806;2023-07-29T12:39:23;33.20;75.20
47168;DHT22;32931;47.778;17.806;2023-07-29T12:41:52;33.00;74.90
47168;DHT22;32931;47.778;17.806;2023-07-29T12:44:19;32.90;75.20
47168;DHT22;32931;47.778;17.806;2023-07-29T12:46:45;32.80;75.80
47168;DHT22;32931;47.778;17.806;2023-07-29T12:49:11;32.80;75.80
47168;DHT22;32931;47.778;17.806;2023-07-29T12:51:38;32.60;76.30
47168;DHT22;32931;47.778;17.806;2023-07-29T12:54:04;32.50;76.50
47168;DHT22;32931;47.778;17.806;2023-07-29T12:56:31;32.50;76.30
47168;DHT22;32931;47.778;17.806;2023-07-29T12:58:59;32.60;77.20
47168;DHT22;32931;47.778;17.806;2023-07-29T13:01:26;32.70;78.40
47168;DHT22;32931;47.778;17.806;2023-07-29T13:03:52;32.90;79.20
47168;DHT22;32931;47.778;17.806;2023-07-29T13:06:18;33.20;76.70
47168;DHT22;32931;47.778;17.806;2023-07-29T13:08:45;33.10;75.30
47168;DHT22;32931;47.778;17.806;2023-07-29T13:11:12;33.10;74.20
47168;DHT22;32931;47.778;17.806;2023-07-29T13:13:38;33.00;75.50
47168;DHT22;32931;47.778;17.806;2023-07-29T13:16:04;32.90;75.60
47168;DHT22;32931;47.778;17.806;2023-07-29T13:18:32;32.90;74.50
47168;DHT22;32931;47.778;17.806;2023-07-29T13:20:58;32.80;74.90
47168;DHT22;32931;47.778;17.806;2023-07-29T13:23:26;32.80;75.50
47168;DHT22;32931;47.778;17.806;2023-07-29T13:25:53;32.70;75.90
47168;DHT22;32931;47.778;17.806;2023-07-29T13:28:19;32.60;76.10
47168;DHT22;32931;47.778;17.806;2023-07-29T13:30:46;32.50;75.20
47168;DHT22;32931;47.778;17.806;2023-07-29T13:33:12;32.30;75.30
47168;DHT22;32931;47.778;17.806;2023-07-29T13:35:38;31.90;74.00
47168;DHT22;32931;47.778;17.806;2023-07-29T13:38:04;31.60;74.20
47168;DHT22;32931;47.778;17.806;2023-07-29T13:40:31;31.50;74.60
47168;DHT22;32931;47.778;17.806;2023-07-29T13:42:57;31.30;74.20
47168;DHT22;32931;47.778;17.806;2023-07-29T13:45:23;31.20;74.60
47168;DHT22;32931;47.778;17.806;2023-07-29T13:47:50;31.10;75.50
47168;DHT22;32931;47.778;17.806;2023-07-29T13:50:17;31.00;76.00
47168;DHT22;32931;47.778;17.806;2023-07-29T13:52:43;30.80;76.40
47168;DHT22;32931;47.778;17.806;2023-07-29T13:55:10;30.80;76.30
47168;DHT22;32931;47.778;17.806;2023-07-29T13:57:38;30.60;76.80
47168;DHT22;32931;47.778;17.806;2023-07-29T14:00:06;30.60;77.50
47168;DHT22;32931;47.778;17.806;2023-07-29T14:02:33;30.50;78.10
47168;DHT22;32931;47.778;17.806;2023-07-29T14:04:59;30.40;78.20
47168;DHT22;32931;47.778;17.806;2023-07-29T14:07:25;30.40;78.70
47168;DHT22;32931;47.778;17.806;2023-07-29T14:09:51;30.30;78.50
47168;DHT22;32931;47.778;17.806;2023-07-29T14:12:17;30.20;79.40
47168;DHT22;32931;47.778;17.806;2023-07-29T14:14:43;30.20;80.10
47168;DHT22;32931;47.778;17.806;2023-07-29T14:17:10;30.10;80.10
47168;DHT22;32931;47.778;17.806;2023-07-29T14:19:37;30.00;81.00
47168;DHT22;32931;47.778;17.806;2023-07-29T14:22:03;30.00;81.40
47168;DHT22;32931;47.778;17.806;2023-07-29T14:24:30;30.00;81.40
47168;DHT22;32931;47.778;17.806;2023-07-29T14:26:56;29.90;82.40
47168;DHT22;32931;47.778;17.806;2023-07-29T14:29:22;29.90;82.50
47168;DHT22;32931;47.778;17.806;2023-07-29T14:31:48;29.90;83.30
47168;DHT22;32931;47.778;17.806;2023-07-29T14:34:14;29.90;83.80
47168;DHT22;32931;47.778;17.806;2023-07-29T14:36:40;29.90;83.40
47168;DHT22;32931;47.778;17.806;2023-07-29T14:39:07;29.80;82.60
47168;DHT22;32931;47.778;17.806;2023-07-29T14:41:33;29.80;83.00
47168;DHT22;32931;47.778;17.806;2023-07-29T14:44:00;29.70;83.20
47168;DHT22;32931;47.778;17.806;2023-07-29T14:46:26;29.70;83.80
47168;DHT22;32931;47.778;17.806;2023-07-29T14:48:52;29.70;84.10
47168;DHT22;32931;47.778;17.806;2023-07-29T14:51:18;29.60;84.50
47168;DHT22;32931;47.778;17.806;2023-07-29T14:53:45;29.50;84.50
47168;DHT22;32931;47.778;17.806;2023-07-29T14:56:11;29.50;84.70
47168;DHT22;32931;47.778;17.806;2023-07-29T14:58:39;29.40;85.00
47168;DHT22;32931;47.778;17.806;2023-07-29T15:01:05;29.20;86.30
47168;DHT22;32931;47.778;17.806;2023-07-29T15:03:31;28.70;91.60
47168;DHT22;32931;47.778;17.806;2023-07-29T15:05:57;28.10;93.10
47168;DHT22;32931;47.778;17.806;2023-07-29T15:08:25;27.50;94.00
47168;DHT22;32931;47.778;17.806;2023-07-29T15:10:51;27.30;94.60
47168;DHT22;32931;47.778;17.806;2023-07-29T15:13:17;27.10;95.50
47168;DHT22;32931;47.778;17.806;2023-07-29T15:15:44;27.10;96.80
47168;DHT22;32931;47.778;17.806;2023-07-29T15:18:10;27.20;97.30
47168;DHT22;32931;47.778;17.806;2023-07-29T15:20:37;27.20;96.90
47168;DHT22;32931;47.778;17.806;2023-07-29T15:23:03;27.10;98.00
47168;DHT22;32931;47.778;17.806;2023-07-29T15:25:29;27.20;98.60
47168;DHT22;32931;47.778;17.806;2023-07-29T15:27:55;27.20;98.90
47168;DHT22;32931;47.778;17.806;2023-07-29T15:30:21;27.30;99.30
47168;DHT22;32931;47.778;17.806;2023-07-29T15:32:47;27.40;99.60
47168;DHT22;32931;47.778;17.806;2023-07-29T15:35:14;27.50;99.30